createdAt,value
2022-09-14T00:00:24.943Z,12.23
2022-09-14T00:02:54.927Z,12.05
2022-09-14T00:07:54.230Z,9.18
2022-09-14T00:10:24.995Z,20.20
2022-09-14T00:12:55.383Z,6.65
2022-09-14T00:15:25.709Z,9.50
2022-09-14T00:17:55.553Z,11.90
2022-09-14T00:20:25.410Z,14.20
2022-09-14T00:22:55.283Z,10.50
2022-09-14T00:25:25.170Z,13.30
2022-09-14T00:27:56.495Z,9.25
2022-09-14T00:30:26.698Z,10.10
2022-09-14T00:32:56.724Z,10.48
2022-09-14T00:37:56.013Z,7.63
2022-09-14T00:42:55.215Z,10.63
2022-09-14T00:45:27.583Z,8.50
2022-09-14T00:47:58.437Z,13.00
2022-09-14T00:50:28.392Z,15.68
2022-09-14T00:52:58.561Z,10.88
2022-09-14T00:55:28.798Z,18.27
2022-09-14T00:57:58.797Z,23.77
2022-09-14T01:02:59.615Z,18.52
2022-09-14T01:05:42.822Z,20.30
2022-09-14T01:08:35.273Z,22.45
2022-09-14T01:11:33.151Z,21.83
2022-09-14T01:14:22.668Z,15.02
2022-09-14T01:17:17.387Z,7.85
2022-09-14T01:20:16.708Z,11.75
2022-09-14T01:23:00.475Z,12.07
2022-09-14T01:26:08.596Z,14.38
2022-09-14T01:29:09.861Z,12.18
2022-09-14T01:32:03.099Z,20.80
2022-09-14T01:34:42.730Z,18.23
2022-09-14T01:37:35.545Z,22.70
2022-09-14T01:40:20.195Z,12.05
2022-09-14T01:42:57.296Z,19.05
2022-09-14T01:45:30.561Z,28.75
2022-09-14T01:48:04.976Z,11.27
2022-09-14T01:50:46.949Z,19.77
2022-09-14T01:53:41.711Z,16.52
2022-09-14T01:56:23.870Z,17.30
2022-09-14T01:59:02.258Z,11.18
2022-09-14T02:01:45.521Z,13.18
2022-09-14T02:04:24.957Z,17.83
2022-09-14T02:06:54.957Z,16.70
2022-09-14T02:09:28.430Z,14.85
2022-09-14T02:12:02.552Z,12.88
2022-09-14T02:14:33.549Z,13.10
2022-09-14T02:17:04.443Z,21.70
2022-09-14T02:19:39.559Z,15.10
2022-09-14T02:22:09.511Z,17.13
2022-09-14T02:24:39.660Z,12.13
2022-09-14T02:27:10.306Z,11.35
2022-09-14T02:29:40.533Z,10.95
2022-09-14T02:32:46.117Z,13.02
2022-09-14T02:35:40.232Z,18.92
2022-09-14T02:38:39.440Z,19.27
2022-09-14T02:41:38.944Z,17.10
2022-09-14T02:44:37.343Z,26.67
2022-09-14T02:47:27.547Z,15.25
2022-09-14T02:50:20.012Z,10.88
2022-09-14T02:53:16.023Z,14.50
2022-09-14T02:55:53.485Z,17.33
2022-09-14T02:58:23.504Z,18.42
2022-09-14T03:00:53.611Z,11.25
2022-09-14T03:03:24.368Z,14.90
2022-09-14T03:05:54.468Z,19.20
2022-09-14T03:08:24.523Z,18.65
2022-09-14T03:10:54.439Z,19.63
2022-09-14T03:13:24.637Z,12.80
2022-09-14T03:15:55.281Z,21.60
2022-09-14T03:18:25.313Z,23.30
2022-09-14T03:20:55.149Z,19.55
2022-09-14T03:25:54.585Z,22.65
2022-09-14T03:28:24.417Z,19.13
2022-09-14T03:30:54.598Z,15.57
2022-09-14T03:33:24.463Z,19.25
2022-09-14T03:35:54.267Z,20.75
2022-09-14T03:38:24.275Z,13.27
2022-09-14T03:40:54.782Z,12.95
2022-09-14T03:43:25.564Z,9.55
2022-09-14T03:45:55.791Z,12.25
2022-09-14T03:48:25.887Z,13.02
2022-09-14T03:50:55.773Z,13.50
2022-09-14T03:53:25.601Z,13.95
2022-09-14T03:55:55.546Z,11.10
2022-09-14T03:58:25.882Z,16.70
2022-09-14T04:00:55.848Z,13.85
2022-09-14T04:03:25.839Z,7.95
2022-09-14T04:05:59.195Z,8.38
2022-09-14T04:08:29.379Z,9.82
2022-09-14T04:10:59.235Z,11.15
2022-09-14T04:13:29.261Z,9.52
2022-09-14T04:16:01.743Z,13.63
2022-09-14T04:18:31.753Z,9.82
2022-09-14T04:21:08.239Z,8.50
2022-09-14T04:23:56.967Z,10.85
2022-09-14T04:26:31.680Z,9.68
2022-09-14T04:29:04.734Z,10.05
2022-09-14T04:31:35.531Z,15.60
2022-09-14T04:34:05.797Z,8.60
2022-09-14T04:36:35.853Z,9.95
2022-09-14T04:39:08.714Z,13.07
2022-09-14T04:41:38.870Z,11.65
2022-09-14T04:44:08.852Z,8.70
2022-09-14T04:46:46.116Z,10.48
2022-09-14T04:49:20.460Z,13.38
2022-09-14T04:51:50.712Z,17.83
2022-09-14T04:54:21.454Z,14.75
2022-09-14T04:56:51.647Z,14.27
2022-09-14T04:59:21.617Z,13.60
2022-09-14T05:01:52.031Z,9.68
2022-09-14T05:04:22.059Z,9.10
2022-09-14T05:06:52.871Z,9.85
2022-09-14T05:09:23.330Z,8.10
2022-09-14T05:11:53.513Z,10.85
2022-09-14T05:14:23.430Z,8.95
2022-09-14T05:16:53.558Z,12.20
2022-09-14T05:19:23.422Z,12.02
2022-09-14T05:21:53.300Z,13.38
2022-09-14T05:24:23.732Z,13.88
2022-09-14T05:26:59.565Z,20.15
2022-09-14T05:29:31.621Z,12.68
2022-09-14T05:32:02.836Z,13.75
2022-09-14T05:34:32.799Z,10.57
2022-09-14T05:37:02.717Z,8.13
2022-09-14T05:39:33.033Z,9.77
2022-09-14T05:42:02.912Z,12.55
2022-09-14T05:44:32.817Z,5.72
2022-09-14T05:47:02.707Z,5.53
2022-09-14T05:49:33.346Z,6.93
2022-09-14T05:52:03.588Z,5.22
2022-09-14T05:54:33.448Z,3.78
2022-09-14T05:57:03.366Z,7.55
2022-09-14T05:59:33.368Z,8.10
2022-09-14T06:02:03.572Z,4.68
2022-09-14T06:04:34.676Z,4.53
2022-09-14T06:07:18.031Z,8.68
2022-09-14T06:09:48.907Z,4.68
2022-09-14T06:12:18.778Z,6.00
2022-09-14T06:14:49.102Z,5.10
2022-09-14T06:17:19.711Z,4.65
2022-09-14T06:19:49.775Z,11.68
2022-09-14T06:22:19.520Z,6.22
2022-09-14T06:24:49.368Z,5.63
2022-09-14T06:27:19.336Z,9.60
2022-09-14T06:29:53.667Z,4.43
2022-09-14T06:32:25.067Z,3.53
2022-09-14T06:34:54.867Z,12.68
2022-09-14T06:37:24.691Z,4.63
2022-09-14T06:39:54.595Z,5.97
2022-09-14T06:42:24.447Z,6.22
2022-09-14T06:44:54.283Z,4.90
2022-09-14T06:47:25.524Z,7.57
2022-09-14T06:49:55.492Z,9.27
2022-09-14T06:52:25.320Z,7.55
2022-09-14T06:54:55.154Z,10.35
2022-09-14T06:57:25.375Z,9.70
2022-09-14T06:59:55.246Z,7.93
2022-09-14T07:02:25.276Z,8.93
2022-09-14T07:04:55.226Z,9.05
2022-09-14T07:07:25.108Z,15.35
2022-09-14T07:09:55.175Z,8.40
2022-09-14T07:12:25.050Z,10.73
2022-09-14T07:14:54.955Z,7.28
2022-09-14T07:17:25.147Z,10.98
2022-09-14T07:19:55.019Z,4.43
2022-09-14T07:22:24.985Z,4.68
2022-09-14T07:24:55.669Z,9.25
2022-09-14T07:27:25.450Z,16.35
2022-09-14T07:29:55.820Z,11.18
2022-09-14T07:32:25.678Z,8.23
2022-09-14T07:34:55.567Z,10.45
2022-09-14T07:37:25.992Z,6.35
2022-09-14T07:39:56.117Z,9.07
2022-09-14T07:42:26.035Z,6.78
2022-09-14T07:44:55.902Z,8.48
2022-09-14T07:47:25.746Z,8.48
2022-09-14T07:49:55.839Z,5.72
2022-09-14T07:52:25.860Z,6.78
2022-09-14T07:54:55.710Z,9.27
2022-09-14T07:57:45.520Z,5.28
2022-09-14T08:00:19.941Z,8.43
2022-09-14T08:02:54.808Z,3.08
2022-09-14T08:05:25.773Z,3.25
2022-09-14T08:07:57.715Z,5.63
2022-09-14T08:10:28.475Z,3.03
2022-09-14T08:12:58.837Z,3.90
2022-09-14T08:15:30.294Z,4.10
2022-09-14T08:18:03.218Z,3.05
2022-09-14T08:20:34.031Z,4.90
2022-09-14T08:23:04.222Z,1.67
2022-09-14T08:25:37.677Z,3.30
2022-09-14T08:28:07.863Z,6.32
2022-09-14T08:30:37.880Z,6.80
2022-09-14T08:33:31.596Z,6.55
2022-09-14T08:36:29.783Z,6.47
2022-09-14T08:39:24.090Z,6.90
2022-09-14T08:42:03.675Z,3.85
2022-09-14T08:44:42.524Z,10.15
2022-09-14T08:47:56.394Z,2.30
2022-09-14T08:50:27.152Z,5.78
2022-09-14T08:52:58.198Z,5.13
2022-09-14T08:55:50.885Z,7.63
2022-09-14T08:58:41.433Z,6.28
2022-09-14T09:01:37.988Z,1.90
2022-09-14T09:04:39.250Z,2.10
2022-09-14T09:07:25.924Z,7.60
2022-09-14T09:09:58.698Z,1.27
2022-09-14T09:12:41.715Z,2.90
2022-09-14T09:15:38.757Z,1.83
2022-09-14T09:18:39.262Z,5.85
2022-09-14T09:21:15.958Z,2.75
2022-09-14T09:23:46.573Z,5.90
2022-09-14T09:26:58.872Z,7.35
2022-09-14T09:29:45.490Z,6.50
2022-09-14T09:35:33.564Z,12.55
2022-09-14T09:38:04.306Z,10.05
2022-09-14T09:40:41.309Z,5.88
2022-09-14T09:43:45.313Z,8.13
2022-09-14T09:46:14.248Z,6.53
2022-09-14T09:48:47.196Z,1.88
2022-09-14T09:51:28.747Z,7.47
2022-09-14T09:54:12.369Z,5.22
2022-09-14T09:56:53.863Z,3.20
2022-09-14T09:59:39.110Z,9.02
2022-09-14T10:02:30.935Z,5.18
2022-09-14T10:05:30.689Z,5.53
2022-09-14T10:08:08.033Z,4.00
2022-09-14T10:10:46.935Z,10.60
2022-09-14T10:13:43.159Z,9.00
2022-09-14T10:16:40.669Z,4.43
2022-09-14T10:19:27.629Z,2.00
2022-09-14T10:22:24.262Z,1.67
2022-09-14T10:25:29.866Z,4.28
2022-09-14T10:28:24.439Z,5.25
2022-09-14T10:31:17.504Z,7.78
2022-09-14T10:33:55.986Z,6.18
2022-09-14T10:36:52.042Z,9.30
2022-09-14T10:39:52.970Z,6.65
2022-09-14T10:42:44.894Z,4.95
2022-09-14T10:45:40.790Z,6.03
2022-09-14T10:48:45.272Z,9.02
2022-09-14T10:51:47.845Z,11.30
2022-09-14T10:54:49.540Z,2.95
2022-09-14T10:57:49.575Z,10.38
2022-09-14T11:00:22.607Z,8.10
2022-09-14T11:03:25.722Z,7.72
2022-09-14T11:06:13.880Z,6.35
2022-09-14T11:08:50.643Z,5.97
2022-09-14T11:11:40.973Z,6.65
2022-09-14T11:14:37.605Z,6.72
2022-09-14T11:17:31.354Z,4.93
2022-09-14T11:20:32.433Z,9.10
2022-09-14T11:23:34.492Z,5.88
2022-09-14T11:26:25.257Z,11.00
2022-09-14T11:29:03.086Z,5.93
2022-09-14T11:31:59.011Z,14.93
2022-09-14T11:34:44.412Z,11.80
2022-09-14T11:37:19.861Z,11.82
2022-09-14T11:40:12.096Z,10.07
2022-09-14T11:43:04.353Z,9.80
2022-09-14T11:45:52.658Z,14.60
2022-09-14T11:48:44.947Z,8.55
2022-09-14T11:51:26.680Z,17.48
2022-09-14T11:53:56.809Z,10.10
2022-09-14T11:56:30.800Z,12.20
2022-09-14T11:59:05.937Z,9.60
2022-09-14T12:01:40.099Z,11.35
2022-09-14T12:04:18.853Z,12.32
2022-09-14T12:06:52.484Z,10.70
2022-09-14T12:09:42.292Z,10.57
2022-09-14T12:15:04.502Z,6.70
2022-09-14T12:17:40.758Z,13.52
2022-09-14T12:20:45.293Z,10.32
2022-09-14T12:23:33.946Z,5.70
2022-09-14T12:26:30.451Z,8.60
2022-09-14T12:29:07.681Z,9.57
2022-09-14T12:32:04.682Z,10.73
2022-09-14T12:34:36.132Z,13.90
2022-09-14T12:37:27.863Z,13.63
2022-09-14T12:40:31.216Z,15.23
2022-09-14T12:43:31.241Z,17.00
2022-09-14T12:46:31.791Z,22.55
2022-09-14T12:49:17.400Z,17.45
2022-09-14T12:51:51.624Z,15.07
2022-09-14T12:54:42.638Z,17.17
2022-09-14T12:57:37.563Z,19.48
2022-09-14T13:00:19.031Z,16.70
2022-09-14T13:03:22.019Z,19.10
2022-09-14T13:05:53.202Z,20.48
2022-09-14T13:08:26.400Z,14.82
2022-09-14T13:10:56.620Z,16.92
2022-09-14T13:13:33.271Z,10.95
2022-09-14T13:16:06.882Z,13.52
2022-09-14T13:18:40.010Z,14.98
2022-09-14T13:21:26.818Z,19.30
2022-09-14T13:23:56.707Z,12.32
2022-09-14T13:29:00.848Z,21.90
2022-09-14T13:31:37.780Z,23.83
2022-09-14T13:34:08.574Z,14.52
2022-09-14T13:36:45.321Z,14.27
2022-09-14T13:39:29.309Z,14.23
2022-09-14T13:42:00.721Z,13.40
2022-09-14T13:44:35.682Z,16.67
2022-09-14T13:47:07.970Z,14.68
2022-09-14T13:49:38.610Z,11.45
2022-09-14T13:52:49.800Z,11.80
2022-09-14T13:55:29.397Z,8.68
2022-09-14T13:58:16.593Z,15.90
2022-09-14T14:01:03.799Z,11.65
2022-09-14T14:03:51.069Z,16.17
2022-09-14T14:06:33.426Z,14.35
2022-09-14T14:09:07.630Z,9.65
2022-09-14T14:11:57.398Z,10.45
2022-09-14T14:14:32.466Z,5.72
2022-09-14T14:17:24.376Z,4.85
2022-09-14T14:19:57.966Z,3.42
2022-09-14T14:22:34.861Z,3.85
2022-09-14T14:25:21.836Z,8.15
2022-09-14T14:27:51.884Z,4.72
2022-09-14T14:30:25.062Z,15.27
2022-09-14T14:32:56.421Z,7.57
2022-09-14T14:35:29.334Z,8.65
2022-09-14T14:38:00.667Z,3.92
2022-09-14T14:40:30.993Z,3.67
2022-09-14T14:43:04.493Z,3.72
2022-09-14T14:45:36.584Z,5.68
2022-09-14T14:48:07.368Z,5.40
2022-09-14T14:50:37.950Z,4.03
2022-09-14T14:53:08.308Z,2.85
2022-09-14T14:55:39.463Z,4.18
2022-09-14T14:58:15.591Z,6.82
2022-09-14T15:00:46.462Z,4.63
2022-09-14T15:03:17.150Z,4.03
2022-09-14T15:05:48.865Z,5.18
2022-09-14T15:08:21.757Z,4.68
2022-09-14T15:10:57.524Z,3.72
2022-09-14T15:13:27.579Z,2.40
2022-09-14T15:15:58.619Z,3.28
2022-09-14T15:18:28.547Z,2.58
2022-09-14T15:23:27.881Z,2.10
2022-09-14T15:28:27.257Z,3.08
2022-09-14T15:30:59.052Z,3.92
2022-09-14T15:33:29.042Z,3.45
2022-09-14T15:38:29.216Z,3.20
2022-09-14T15:40:59.159Z,6.72
2022-09-14T15:46:04.209Z,7.70
2022-09-14T15:48:34.200Z,6.78
2022-09-14T15:51:12.476Z,5.85
2022-09-14T15:53:42.585Z,5.15
2022-09-14T15:56:14.256Z,7.95
2022-09-14T15:58:47.909Z,7.18
2022-09-14T16:01:20.138Z,3.17
2022-09-14T16:03:50.169Z,4.40
2022-09-14T16:08:49.412Z,8.17
2022-09-14T16:13:50.172Z,8.17
2022-09-14T16:16:21.669Z,5.40
2022-09-14T16:18:52.843Z,1.98
2022-09-14T16:21:26.365Z,2.30
2022-09-14T16:23:58.717Z,4.13
2022-09-14T16:26:32.193Z,3.72
2022-09-14T16:29:02.618Z,5.75
2022-09-14T16:31:35.545Z,3.33
2022-09-14T16:34:10.921Z,2.67
2022-09-14T16:36:42.766Z,6.97
2022-09-14T16:39:15.505Z,4.72
2022-09-14T16:41:45.811Z,7.60
2022-09-14T16:44:20.388Z,3.60
2022-09-14T16:46:50.820Z,9.40
2022-09-14T16:49:28.637Z,4.15
2022-09-14T16:52:02.175Z,2.20
2022-09-14T16:54:33.460Z,4.90
2022-09-14T16:57:03.431Z,3.10
2022-09-14T17:02:02.951Z,2.33
2022-09-14T17:04:32.938Z,3.55
2022-09-14T17:09:35.398Z,3.63
2022-09-14T17:12:05.721Z,3.60
2022-09-14T17:14:37.310Z,5.85
2022-09-14T17:17:07.167Z,3.88
2022-09-14T17:19:39.506Z,5.47
2022-09-14T17:22:13.040Z,4.32
2022-09-14T17:24:43.102Z,2.55
2022-09-14T17:29:42.602Z,3.00
2022-09-14T17:32:14.915Z,4.53
2022-09-14T17:34:45.031Z,2.47
2022-09-14T17:37:14.913Z,5.78
2022-09-14T17:39:44.903Z,3.22
2022-09-14T17:44:44.671Z,5.00
2022-09-14T17:47:14.648Z,3.83
2022-09-14T17:52:13.901Z,3.55
2022-09-14T17:54:46.824Z,7.35
2022-09-14T17:57:16.765Z,4.47
2022-09-14T17:59:47.271Z,5.72
2022-09-14T18:02:17.255Z,2.92
2022-09-14T18:07:18.691Z,4.90
2022-09-14T18:12:19.416Z,3.20
2022-09-14T18:14:49.686Z,6.85
2022-09-14T18:17:19.630Z,7.45
2022-09-14T18:22:19.542Z,4.47
2022-09-14T18:24:49.351Z,3.33
2022-09-14T18:27:19.435Z,3.35
2022-09-14T18:29:49.385Z,3.28
2022-09-14T18:34:48.519Z,3.50
2022-09-14T18:37:18.415Z,3.75
2022-09-14T18:39:48.453Z,4.40
2022-09-14T18:44:47.768Z,4.82
2022-09-14T18:47:23.259Z,4.57
2022-09-14T18:49:53.302Z,3.08
2022-09-14T18:54:52.557Z,5.15
2022-09-14T18:59:51.915Z,2.92
2022-09-14T19:04:51.467Z,7.38
2022-09-14T19:07:21.484Z,3.83
2022-09-14T19:12:20.744Z,8.93
2022-09-14T19:14:50.642Z,6.32
2022-09-14T19:17:20.992Z,8.35
2022-09-14T19:19:50.942Z,8.48
2022-09-14T19:22:20.864Z,8.52
2022-09-14T19:24:50.780Z,6.25
2022-09-14T19:27:20.644Z,4.88
2022-09-14T19:29:50.921Z,8.50
2022-09-14T19:32:21.090Z,4.40
2022-09-14T19:34:51.259Z,5.90
2022-09-14T19:37:21.154Z,7.72
2022-09-14T19:39:51.382Z,8.68
2022-09-14T19:42:24.297Z,4.07
2022-09-14T19:44:54.631Z,7.68
2022-09-14T19:47:24.765Z,5.80
2022-09-14T19:52:23.970Z,8.77
2022-09-14T19:54:53.897Z,5.60
2022-09-14T19:57:23.742Z,8.38
2022-09-14T19:59:53.733Z,8.63
2022-09-14T20:04:53.229Z,6.00
2022-09-14T20:07:23.295Z,5.10
2022-09-14T20:12:22.426Z,8.75
2022-09-14T20:14:52.393Z,8.50
2022-09-14T20:17:23.681Z,7.40
2022-09-14T20:19:53.660Z,16.08
2022-09-14T20:24:52.838Z,6.67
2022-09-14T20:27:22.879Z,8.38
2022-09-14T20:34:52.528Z,8.55
2022-09-14T20:37:22.511Z,5.53
2022-09-14T20:42:22.234Z,5.28
2022-09-14T20:44:52.143Z,8.15
2022-09-14T20:47:22.427Z,6.97
2022-09-14T20:49:52.400Z,8.82
2022-09-14T20:54:52.265Z,9.02
2022-09-14T20:59:51.550Z,10.37
2022-09-14T21:02:21.465Z,6.88
2022-09-14T21:04:51.538Z,7.72
2022-09-14T21:09:51.068Z,8.43
2022-09-14T21:12:21.086Z,5.50
2022-09-14T21:17:20.617Z,4.53
2022-09-14T21:19:50.798Z,4.82
2022-09-14T21:22:21.049Z,3.55
2022-09-14T21:24:50.971Z,6.13
2022-09-14T21:27:20.912Z,4.45
2022-09-14T21:29:52.799Z,5.25
2022-09-14T21:32:22.798Z,5.13
2022-09-14T21:37:22.129Z,10.18
2022-09-14T21:39:52.320Z,4.47
2022-09-14T21:42:22.210Z,7.43
2022-09-14T21:44:52.237Z,5.15
2022-09-14T21:49:52.323Z,5.22
2022-09-14T21:52:22.331Z,8.13
2022-09-14T21:57:21.522Z,9.73
2022-09-14T21:59:51.360Z,4.30
2022-09-14T22:02:21.259Z,5.40
2022-09-14T22:04:51.306Z,11.25
2022-09-14T22:09:50.768Z,5.67
2022-09-14T22:14:54.246Z,8.80
2022-09-14T22:17:24.144Z,6.75
2022-09-14T22:19:56.666Z,9.10
2022-09-14T22:22:26.482Z,10.93
2022-09-14T22:24:56.670Z,6.97
2022-09-14T22:27:26.658Z,7.72
2022-09-14T22:32:26.067Z,9.73
2022-09-14T22:37:25.213Z,11.60
2022-09-14T22:39:55.558Z,10.93
2022-09-14T22:42:25.783Z,15.82
2022-09-14T22:44:55.938Z,8.25
2022-09-14T22:47:26.043Z,6.90
2022-09-14T22:50:02.771Z,12.98
2022-09-14T22:52:32.682Z,7.10
2022-09-14T22:55:02.780Z,7.35
2022-09-14T23:00:01.815Z,9.63
2022-09-14T23:02:31.931Z,13.23
2022-09-14T23:05:01.909Z,11.02
2022-09-14T23:07:33.730Z,7.85
2022-09-14T23:10:03.685Z,8.48
2022-09-14T23:12:33.553Z,10.73
2022-09-14T23:15:03.500Z,6.32
2022-09-14T23:17:33.941Z,10.77
2022-09-14T23:20:04.501Z,8.70
2022-09-14T23:22:34.623Z,12.95
2022-09-14T23:25:04.970Z,8.75
2022-09-14T23:27:34.975Z,13.43
2022-09-14T23:32:34.518Z,14.10
2022-09-14T23:35:04.556Z,8.73
2022-09-14T23:40:04.064Z,8.43
2022-09-14T23:42:34.112Z,10.85
2022-09-14T23:47:33.504Z,8.33
2022-09-14T23:52:33.536Z,13.10
2022-09-14T23:55:03.595Z,9.63
